KHLR/HLR METAR and TAF weather

Enter ICAO airport designator
Station Type Date Time Source
KHLR METAR 2021/09/20 04:58 UTC NOAA

KHLR 200458Z AUTO 13007KT 10SM CLR 27/19 A2988 RMK AO2 SLP105 T02680192


Station Type Date Time Source
KHLR Decoded METAR 2021/09/20 04:58 UTC NOAA

Fort Hood, Hood AAF Ft Hood, TX, United States (KHLR) 31-08N 097-42W
Sep 20, 2021 - 12:58 AM EDT / 2021.09.20 0458 UTC
Wind: from the SE (130 degrees) at 8 MPH (7 KT):0
Visibility: 10 mile(s):0
Sky conditions: clear
Temperature: 80.2 F (26.8 C)
Dew Point: 66.6 F (19.2 C)
Relative Humidity: 63%
Pressure (altimeter): 29.88 in. Hg (1011 hPa)
ob: KHLR 200458Z AUTO 13007KT 10SM CLR 27/19 A2988 RMK AO2 SLP105 T02680192
cycle: 5

Station Type Date Time Source
KHLR TAF UTC NOAA

Error!

Example: see airport list